Time;durP1;ratioP1;P1;durP2;ratioP2;P2;SDS_P1;SDS_P2;PMS_P1;PMS_P2;Temp;Humidity;BMP_temperature;BMP_pressure;BME280_temperature;BME280_humidity;BME280_pressure;Samples;Min_cycle;Max_cycle;Signal;HPM_P1;HPM_P2
2023/04/18 00:00:57;;;;;;;10.27;7.85;;;10.10;67.00;;;;;;5045560;28;20021;-64
2023/04/18 00:03:23;;;;;;;10.45;7.97;;;10.10;66.80;;;;;;5038766;28;20511;-65
2023/04/18 00:05:49;;;;;;;11.23;7.85;;;10.00;66.40;;;;;;5038202;28;20026;-67
2023/04/18 00:08:15;;;;;;;10.98;7.72;;;10.00;66.40;;;;;;5039471;28;20020;-65
2023/04/18 00:10:41;;;;;;;11.13;8.25;;;10.00;66.20;;;;;;5041517;28;20451;-65
2023/04/18 00:13:06;;;;;;;11.50;8.02;;;9.90;66.00;;;;;;5039985;28;20033;-65
2023/04/18 00:15:34;;;;;;;11.25;8.05;;;9.90;65.50;;;;;;5042202;28;20033;-66
2023/04/18 00:18:04;;;;;;;9.40;7.20;;;9.80;65.40;;;;;;5040881;28;20021;-70
2023/04/18 00:20:30;;;;;;;9.98;7.80;;;9.80;65.40;;;;;;5046884;28;20051;-65
2023/04/18 00:22:56;;;;;;;10.05;6.85;;;9.70;65.20;;;;;;5048460;28;20028;-65
2023/04/18 00:25:22;;;;;;;12.20;8.18;;;9.70;65.30;;;;;;5059399;28;20036;-65
2023/04/18 00:27:48;;;;;;;9.63;7.50;;;9.60;64.90;;;;;;5047972;28;20108;-66
2023/04/18 00:30:14;;;;;;;11.10;8.07;;;9.60;64.80;;;;;;5047979;28;20029;-65
2023/04/18 00:32:39;;;;;;;11.32;7.70;;;9.50;64.60;;;;;;5048581;28;20033;-65
2023/04/18 00:35:05;;;;;;;9.07;7.20;;;9.50;64.60;;;;;;5048413;28;20013;-64
2023/04/18 00:37:31;;;;;;;9.93;7.72;;;9.50;64.50;;;;;;5047660;28;20464;-66
2023/04/18 00:39:56;;;;;;;11.00;8.73;;;9.50;64.20;;;;;;5048300;28;20028;-66
2023/04/18 00:42:24;;;;;;;9.52;7.80;;;9.40;64.20;;;;;;5050031;28;20033;-67
2023/04/18 00:44:49;;;;;;;9.48;7.32;;;9.40;64.20;;;;;;5054142;28;20502;-65
2023/04/18 00:47:18;;;;;;;10.52;7.68;;;9.40;64.30;;;;;;5051427;28;20025;-64
2023/04/18 00:49:44;;;;;;;8.95;7.20;;;9.30;64.20;;;;;;5050829;28;20060;-64
2023/04/18 00:52:11;;;;;;;9.73;7.53;;;9.20;64.80;;;;;;5050536;28;20538;-65
2023/04/18 00:54:37;;;;;;;10.32;7.40;;;9.20;64.10;;;;;;5053482;28;20024;-65
2023/04/18 00:57:03;;;;;;;10.15;7.95;;;9.20;64.10;;;;;;5049502;28;20017;-64
2023/04/18 00:59:29;;;;;;;9.95;7.72;;;9.10;64.00;;;;;;5029938;28;20162;-64
2023/04/18 01:01:54;;;;;;;9.23;6.97;;;9.00;64.00;;;;;;5051216;28;20024;-64
2023/04/18 01:04:20;;;;;;;9.88;7.82;;;9.00;64.70;;;;;;5051039;28;20021;-65
2023/04/18 01:06:46;;;;;;;9.30;7.53;;;9.00;63.90;;;;;;5051223;28;20047;-65
2023/04/18 01:09:12;;;;;;;12.50;8.68;;;8.90;64.00;;;;;;5055307;28;20386;-66
2023/04/18 01:11:38;;;;;;;8.50;7.38;;;8.90;63.90;;;;;;5055117;28;20017;-67
2023/04/18 01:14:06;;;;;;;11.00;7.90;;;8.90;63.90;;;;;;5048526;28;20108;-65
2023/04/18 01:16:32;;;;;;;10.38;7.68;;;8.80;63.90;;;;;;5050480;28;20056;-65
2023/04/18 01:19:02;;;;;;;13.50;8.68;;;8.80;63.90;;;;;;5051316;28;20056;-66
2023/04/18 01:21:34;;;;;;;9.90;7.32;;;8.70;63.80;;;;;;5050452;28;20033;-65
2023/04/18 01:24:07;;;;;;;10.18;7.35;;;8.70;64.00;;;;;;5052883;28;20040;-64
2023/04/18 01:26:32;;;;;;;8.98;6.43;;;8.70;63.90;;;;;;5050233;28;20028;-66
2023/04/18 01:28:58;;;;;;;9.30;6.45;;;8.60;63.90;;;;;;5050381;28;20633;-63
2023/04/18 01:31:23;;;;;;;10.93;7.25;;;8.60;63.90;;;;;;5048735;28;20025;-65
2023/04/18 01:33:49;;;;;;;9.18;6.75;;;8.60;63.90;;;;;;5052120;28;20057;-65
2023/04/18 01:36:15;;;;;;;8.68;6.70;;;8.60;63.80;;;;;;5049594;28;20025;-64
2023/04/18 01:38:40;;;;;;;9.18;6.75;;;8.50;63.80;;;;;;5050027;28;20036;-65
2023/04/18 01:41:06;;;;;;;8.93;7.05;;;8.50;63.90;;;;;;5052098;28;20029;-64
2023/04/18 01:43:31;;;;;;;10.02;7.13;;;8.50;63.90;;;;;;5050356;28;20025;-66
2023/04/18 01:45:57;;;;;;;10.30;7.38;;;8.50;64.00;;;;;;5053106;28;20112;-64
2023/04/18 01:48:22;;;;;;;8.90;6.35;;;8.40;64.00;;;;;;5049250;28;20032;-65
2023/04/18 01:50:48;;;;;;;8.98;6.85;;;8.40;64.00;;;;;;5053205;28;20013;-65
2023/04/18 01:53:13;;;;;;;9.43;6.70;;;8.40;64.00;;;;;;5049638;28;20116;-65
2023/04/18 01:55:39;;;;;;;10.00;7.15;;;8.40;64.00;;;;;;5050295;28;20029;-65
2023/04/18 01:58:04;;;;;;;11.27;7.28;;;8.40;64.10;;;;;;5047808;28;20029;-66
2023/04/18 02:00:30;;;;;;;9.70;6.70;;;8.30;64.10;;;;;;5031709;28;20043;-66
2023/04/18 02:02:57;;;;;;;11.07;7.88;;;8.30;64.10;;;;;;5050678;28;20544;-65
2023/04/18 02:05:23;;;;;;;11.48;8.13;;;8.30;64.10;;;;;;5051138;28;20049;-65
2023/04/18 02:07:49;;;;;;;9.80;7.22;;;8.20;64.10;;;;;;5051143;28;20025;-66
2023/04/18 02:10:15;;;;;;;11.68;7.57;;;8.20;64.30;;;;;;5051093;28;20021;-66
2023/04/18 02:12:40;;;;;;;11.88;7.28;;;8.20;64.30;;;;;;5033697;28;20099;-64
2023/04/18 02:15:06;;;;;;;9.25;6.80;;;8.10;64.30;;;;;;5049260;28;20021;-67
2023/04/18 02:17:32;;;;;;;9.23;7.38;;;8.20;64.40;;;;;;5049520;28;20024;-65
2023/04/18 02:19:57;;;;;;;9.90;7.28;;;8.10;64.30;;;;;;5051964;28;20542;-66
2023/04/18 02:22:23;;;;;;;10.52;7.70;;;8.10;64.40;;;;;;5049943;28;20029;-68
2023/04/18 02:24:49;;;;;;;10.80;7.95;;;8.10;64.40;;;;;;5049173;28;20033;-66
2023/04/18 02:27:14;;;;;;;11.05;8.35;;;8.00;64.50;;;;;;5049326;28;20025;-65
2023/04/18 02:29:40;;;;;;;11.75;7.75;;;7.90;64.50;;;;;;5047517;28;20403;-65
2023/04/18 02:32:05;;;;;;;11.13;7.97;;;7.90;64.60;;;;;;5049727;28;20457;-63
2023/04/18 02:34:32;;;;;;;11.27;7.90;;;7.90;64.60;;;;;;5049699;28;20032;-65
2023/04/18 02:36:58;;;;;;;12.57;8.02;;;7.90;64.70;;;;;;5050127;28;20144;-67
2023/04/18 02:39:23;;;;;;;9.05;7.00;;;7.90;64.90;;;;;;5044987;28;20032;-65
2023/04/18 02:41:49;;;;;;;10.98;8.00;;;7.80;64.90;;;;;;5048991;28;20096;-65
2023/04/18 02:44:15;;;;;;;11.27;7.63;;;7.90;65.00;;;;;;5048851;28;20099;-66
2023/04/18 02:46:41;;;;;;;9.05;7.00;;;7.80;65.00;;;;;;5059616;28;20025;-64
2023/04/18 02:49:06;;;;;;;10.32;7.40;;;7.80;65.10;;;;;;5048106;28;20029;-65
2023/04/18 02:51:32;;;;;;;13.02;7.20;;;7.70;65.30;;;;;;5049484;28;20029;-65
2023/04/18 02:53:57;;;;;;;11.55;7.30;;;7.70;65.30;;;;;;5047400;28;20509;-64
2023/04/18 02:56:23;;;;;;;11.43;8.48;;;7.70;65.40;;;;;;5048911;28;20036;-65
2023/04/18 02:58:49;;;;;;;10.68;8.07;;;7.70;65.50;;;;;;5049223;28;20104;-65
2023/04/18 03:01:16;;;;;;;10.00;7.63;;;7.60;65.60;;;;;;5051529;28;20048;-63
2023/04/18 03:03:41;;;;;;;9.95;7.53;;;7.60;65.80;;;;;;5048110;28;20104;-64
2023/04/18 03:06:07;;;;;;;11.40;8.02;;;7.60;65.90;;;;;;5054357;28;20087;-66
2023/04/18 03:08:32;;;;;;;10.25;7.82;;;7.50;65.90;;;;;;5049098;28;20384;-68
2023/04/18 03:10:58;;;;;;;11.35;7.75;;;7.60;66.10;;;;;;5047842;28;20052;-67
2023/04/18 03:13:24;;;;;;;10.32;7.82;;;7.50;66.00;;;;;;5048745;28;20028;-68
2023/04/18 03:15:50;;;;;;;9.35;7.20;;;7.50;66.30;;;;;;5049776;28;20470;-67
2023/04/18 03:18:15;;;;;;;10.00;7.53;;;7.50;66.40;;;;;;5048934;28;20029;-67
2023/04/18 03:20:41;;;;;;;10.52;7.45;;;7.50;66.50;;;;;;5048615;28;20025;-68
2023/04/18 03:23:07;;;;;;;9.40;7.22;;;7.50;66.50;;;;;;5048295;28;20044;-66
2023/04/18 03:25:33;;;;;;;11.23;8.10;;;7.40;66.50;;;;;;5046503;28;20086;-67
2023/04/18 03:27:59;;;;;;;10.05;7.93;;;7.40;66.70;;;;;;5046647;28;20056;-68
2023/04/18 03:30:25;;;;;;;12.63;7.88;;;7.40;66.90;;;;;;5050395;28;20025;-67
2023/04/18 03:32:51;;;;;;;12.32;8.23;;;7.40;67.00;;;;;;5048975;28;20403;-67
2023/04/18 03:35:17;;;;;;;10.65;7.57;;;7.40;67.00;;;;;;5048666;28;20017;-66
2023/04/18 03:37:43;;;;;;;10.75;7.78;;;7.40;67.00;;;;;;5048694;28;20028;-65
2023/04/18 03:40:09;;;;;;;14.70;9.18;;;7.40;67.10;;;;;;5050579;28;20017;-67
2023/04/18 03:42:35;;;;;;;13.15;8.23;;;7.50;67.20;;;;;;5050583;28;20025;-66
2023/04/18 03:45:01;;;;;;;11.68;8.55;;;7.40;67.20;;;;;;5030622;28;20028;-65
2023/04/18 03:47:27;;;;;;;10.68;7.85;;;7.50;67.30;;;;;;5050846;28;20029;-65
2023/04/18 03:49:53;;;;;;;12.38;9.20;;;7.50;67.40;;;;;;5030234;28;20036;-65
2023/04/18 03:52:19;;;;;;;11.48;8.43;;;7.40;67.50;;;;;;5047404;28;20049;-64
2023/04/18 03:54:44;;;;;;;10.95;8.50;;;7.50;67.70;;;;;;5048574;28;20052;-65
2023/04/18 03:57:10;;;;;;;13.90;8.90;;;7.50;67.60;;;;;;5047929;28;20490;-65
2023/04/18 03:59:36;;;;;;;11.90;8.65;;;7.60;67.60;;;;;;5046390;28;20025;-63
2023/04/18 04:02:01;;;;;;;11.93;8.75;;;7.50;67.70;;;;;;5049893;28;20021;-64
2023/04/18 04:04:27;;;;;;;12.38;8.88;;;7.50;67.90;;;;;;5048084;28;20029;-65
2023/04/18 04:06:52;;;;;;;13.00;8.45;;;7.50;68.00;;;;;;5047971;28;20021;-66
2023/04/18 04:09:18;;;;;;;12.02;9.27;;;7.50;68.10;;;;;;5047907;28;20123;-65
2023/04/18 04:11:45;;;;;;;10.30;8.02;;;7.60;68.30;;;;;;5048393;28;20029;-65
2023/04/18 04:14:10;;;;;;;10.10;8.15;;;7.60;68.30;;;;;;5047589;28;20052;-64
2023/04/18 04:16:36;;;;;;;10.38;8.43;;;7.60;68.20;;;;;;5046816;28;20475;-65
2023/04/18 04:19:03;;;;;;;12.38;9.07;;;7.70;68.20;;;;;;5052475;28;20060;-65
2023/04/18 04:21:30;;;;;;;12.57;8.73;;;7.70;68.40;;;;;;5053233;28;20032;-65
2023/04/18 04:23:56;;;;;;;12.23;9.00;;;7.60;68.50;;;;;;5051684;28;20025;-65
2023/04/18 04:26:22;;;;;;;12.77;9.23;;;7.70;68.60;;;;;;5052034;28;20040;-66
2023/04/18 04:28:48;;;;;;;12.20;8.35;;;7.70;68.60;;;;;;5053567;28;20104;-68
2023/04/18 04:31:15;;;;;;;11.57;9.20;;;7.80;68.60;;;;;;5050594;28;20025;-66
2023/04/18 04:33:41;;;;;;;11.32;8.73;;;7.80;68.80;;;;;;5052911;28;20079;-66
2023/04/18 04:36:07;;;;;;;10.32;8.00;;;7.80;68.80;;;;;;5051778;28;20013;-66
2023/04/18 04:38:37;;;;;;;13.70;10.35;;;7.80;68.80;;;;;;5051563;28;20612;-67
2023/04/18 04:41:03;;;;;;;11.52;9.00;;;7.90;69.00;;;;;;5052766;28;20056;-66
2023/04/18 04:43:29;;;;;;;13.55;9.15;;;7.80;69.00;;;;;;5051301;28;20550;-65
2023/04/18 04:45:56;;;;;;;10.70;8.65;;;7.90;69.20;;;;;;5051663;28;20461;-66
2023/04/18 04:48:23;;;;;;;12.20;9.48;;;7.90;69.20;;;;;;5053132;28;20021;-66
2023/04/18 04:50:54;;;;;;;12.50;8.80;;;7.90;69.40;;;;;;5051334;28;20112;-65
2023/04/18 04:53:20;;;;;;;11.65;8.55;;;7.90;69.30;;;;;;5055610;28;20029;-66
2023/04/18 04:55:46;;;;;;;12.70;9.10;;;7.90;69.40;;;;;;5051539;28;20090;-68
2023/04/18 04:58:12;;;;;;;12.60;9.43;;;7.90;69.50;;;;;;5051166;28;20052;-65
2023/04/18 05:00:37;;;;;;;11.18;8.95;;;7.90;69.60;;;;;;5051454;28;20032;-65
2023/04/18 05:03:03;;;;;;;10.32;8.80;;;7.90;69.60;;;;;;5051220;28;20103;-66
2023/04/18 05:05:29;;;;;;;11.93;9.30;;;8.00;69.70;;;;;;5055181;28;20052;-69
2023/04/18 05:07:55;;;;;;;11.85;8.82;;;7.90;69.80;;;;;;5053352;28;20031;-65
2023/04/18 05:10:20;;;;;;;11.65;8.52;;;7.90;69.80;;;;;;5052870;28;20662;-66
2023/04/18 05:12:46;;;;;;;10.15;8.10;;;8.00;69.90;;;;;;5052873;28;20037;-65
2023/04/18 05:15:15;;;;;;;12.05;9.00;;;8.00;69.90;;;;;;5051176;28;20025;-67
2023/04/18 05:17:41;;;;;;;13.95;10.13;;;8.00;70.00;;;;;;5051064;28;20055;-65
2023/04/18 05:20:07;;;;;;;13.43;9.15;;;8.00;70.10;;;;;;5051378;28;20025;-66
2023/04/18 05:22:32;;;;;;;11.23;8.73;;;8.00;70.20;;;;;;5050133;28;20671;-66
2023/04/18 05:24:58;;;;;;;11.35;9.30;;;8.10;70.30;;;;;;5051289;28;20021;-65
2023/04/18 05:27:25;;;;;;;11.82;8.95;;;8.10;70.50;;;;;;5053195;28;20029;-64
2023/04/18 05:29:51;;;;;;;13.57;9.40;;;8.10;70.50;;;;;;5050848;28;20033;-66
2023/04/18 05:32:17;;;;;;;14.05;8.98;;;8.10;70.50;;;;;;5052487;28;20043;-65
2023/04/18 05:34:42;;;;;;;13.88;9.60;;;8.10;70.60;;;;;;5052082;28;20489;-66
2023/04/18 05:37:08;;;;;;;11.73;9.80;;;8.20;70.60;;;;;;5055243;28;20025;-67
2023/04/18 05:39:33;;;;;;;13.52;9.30;;;8.20;70.70;;;;;;5051136;28;20572;-65
2023/04/18 05:42:00;;;;;;;11.45;8.07;;;8.30;70.80;;;;;;5050943;28;20032;-65
2023/04/18 05:44:25;;;;;;;12.88;9.23;;;8.30;70.70;;;;;;5049459;28;20025;-66
2023/04/18 05:46:51;;;;;;;13.65;10.07;;;8.30;71.00;;;;;;5047432;28;20036;-65
2023/04/18 05:49:19;;;;;;;13.25;9.55;;;8.30;71.20;;;;;;5050655;28;20029;-65
2023/04/18 05:51:45;;;;;;;12.98;10.23;;;8.30;71.80;;;;;;5049499;28;20036;-67
2023/04/18 05:54:11;;;;;;;13.77;10.07;;;8.30;71.50;;;;;;5051140;28;20137;-67
2023/04/18 05:56:37;;;;;;;12.40;9.25;;;8.30;71.60;;;;;;5034419;28;20017;-65
2023/04/18 05:59:03;;;;;;;11.40;8.95;;;8.40;71.70;;;;;;5049605;28;20048;-65
2023/04/18 06:01:28;;;;;;;13.52;10.35;;;8.50;71.70;;;;;;5052192;28;20056;-65
2023/04/18 06:03:54;;;;;;;13.02;10.05;;;8.50;71.90;;;;;;5049829;28;20025;-65
2023/04/18 06:06:20;;;;;;;13.20;9.93;;;8.50;71.80;;;;;;5050084;28;20032;-67
2023/04/18 06:08:46;;;;;;;13.05;9.60;;;8.50;71.80;;;;;;5050343;28;20044;-67
2023/04/18 06:11:13;;;;;;;11.70;8.88;;;8.60;71.80;;;;;;5049851;28;20626;-65
2023/04/18 06:13:39;;;;;;;12.10;8.98;;;8.60;71.70;;;;;;5050164;28;20116;-65
2023/04/18 06:16:05;;;;;;;13.05;9.65;;;8.70;71.70;;;;;;5046549;28;20104;-65
2023/04/18 06:18:31;;;;;;;10.63;8.65;;;8.70;71.80;;;;;;5037391;28;20036;-65
2023/04/18 06:20:57;;;;;;;12.63;9.82;;;8.70;71.80;;;;;;5036845;28;20022;-67
2023/04/18 06:23:22;;;;;;;12.38;9.25;;;8.80;71.80;;;;;;5037145;28;20048;-65
2023/04/18 06:25:48;;;;;;;11.90;9.13;;;8.80;71.70;;;;;;5040101;28;20025;-68
2023/04/18 06:28:13;;;;;;;12.80;8.98;;;8.80;71.60;;;;;;5040549;28;20124;-66
2023/04/18 06:30:39;;;;;;;13.20;10.00;;;8.90;71.60;;;;;;5037773;28;20117;-70
2023/04/18 06:33:09;;;;;;;13.52;9.75;;;8.90;72.00;;;;;;5039583;28;20045;-66
2023/04/18 06:35:34;;;;;;;10.68;8.65;;;8.90;72.20;;;;;;5037542;28;20029;-65
2023/04/18 06:38:01;;;;;;;12.35;9.02;;;8.90;72.20;;;;;;5037427;28;20064;-68
2023/04/18 06:40:27;;;;;;;12.43;9.70;;;9.10;72.20;;;;;;5036417;28;20048;-65
2023/04/18 06:42:52;;;;;;;11.93;9.68;;;9.10;72.00;;;;;;5038395;28;20028;-65
2023/04/18 06:45:18;;;;;;;11.80;9.00;;;9.10;72.10;;;;;;5055418;28;20029;-66
2023/04/18 06:47:44;;;;;;;11.38;9.23;;;9.00;72.40;;;;;;5042230;28;20483;-69
2023/04/18 06:50:10;;;;;;;10.90;8.75;;;9.00;72.60;;;;;;5031946;28;20024;-67
2023/04/18 06:52:39;;;;;;;10.57;8.07;;;9.10;72.50;;;;;;5031023;28;20041;-68
2023/04/18 06:55:06;;;;;;;10.00;7.55;;;9.10;72.50;;;;;;5033491;28;20014;-65
2023/04/18 06:57:31;;;;;;;9.70;8.00;;;9.30;72.30;;;;;;5046585;28;20025;-64
2023/04/18 06:59:57;;;;;;;12.15;8.32;;;9.40;72.00;;;;;;5031699;28;20025;-66
2023/04/18 07:02:23;;;;;;;11.30;8.13;;;9.60;71.50;;;;;;5041408;28;20047;-65
2023/04/18 07:04:49;;;;;;;10.68;8.10;;;9.70;71.20;;;;;;5046623;28;20029;-66
2023/04/18 07:07:14;;;;;;;8.98;7.45;;;10.10;70.70;;;;;;5048526;28;20045;-65
2023/04/18 07:09:40;;;;;;;9.55;7.10;;;10.20;69.80;;;;;;5049288;28;20063;-65
2023/04/18 07:12:06;;;;;;;9.85;7.50;;;10.70;69.40;;;;;;5046902;28;20522;-65
2023/04/18 07:14:31;;;;;;;9.90;8.20;;;11.10;67.60;;;;;;5048577;28;20494;-66
2023/04/18 07:16:57;;;;;;;10.52;8.02;;;11.50;66.20;;;;;;5047956;28;20029;-67
2023/04/18 07:19:22;;;;;;;10.57;7.40;;;11.90;64.60;;;;;;5045770;28;20035;-65
2023/04/18 07:21:48;;;;;;;8.40;7.03;;;13.20;63.40;;;;;;5045930;28;20035;-66
2023/04/18 07:24:13;;;;;;;7.60;5.97;;;14.50;60.20;;;;;;5033804;28;20029;-65
2023/04/18 07:26:39;;;;;;;9.43;7.22;;;15.60;57.80;;;;;;5048359;28;20040;-65
2023/04/18 07:29:05;;;;;;;7.78;6.60;;;16.10;55.30;;;;;;5049777;28;20037;-66
2023/04/18 07:31:31;;;;;;;8.43;6.32;;;16.40;53.90;;;;;;5044380;28;20040;-66
2023/04/18 07:33:57;;;;;;;7.35;6.40;;;16.70;52.70;;;;;;5048628;28;20047;-66
2023/04/18 07:36:22;;;;;;;8.10;5.60;;;16.20;52.10;;;;;;5047312;28;20406;-65
2023/04/18 07:38:48;;;;;;;9.38;6.47;;;15.40;54.20;;;;;;5042883;28;20020;-65
2023/04/18 07:41:14;;;;;;;8.15;6.07;;;15.40;53.60;;;;;;5045976;28;20033;-66
2023/04/18 07:43:40;;;;;;;7.05;5.75;;;14.30;55.10;;;;;;5046801;28;20475;-67
2023/04/18 07:46:06;;;;;;;7.72;6.45;;;13.90;56.70;;;;;;5042211;28;20039;-66
2023/04/18 07:48:32;;;;;;;7.22;6.20;;;13.70;57.80;;;;;;5043511;28;20032;-65
2023/04/18 07:50:58;;;;;;;7.15;5.85;;;14.70;57.00;;;;;;5049581;28;20025;-67
2023/04/18 07:53:23;;;;;;;8.07;6.10;;;16.20;54.60;;;;;;5051349;28;20021;-66
2023/04/18 07:55:50;;;;;;;7.10;6.05;;;15.60;53.10;;;;;;5045271;28;20028;-66
2023/04/18 07:58:16;;;;;;;6.28;5.55;;;14.60;55.00;;;;;;5047677;28;20494;-66
2023/04/18 08:00:43;;;;;;;7.22;5.82;;;14.00;57.10;;;;;;5049345;28;20492;-65
2023/04/18 08:03:10;;;;;;;8.77;6.70;;;14.00;57.00;;;;;;5045828;28;20446;-67
2023/04/18 08:05:37;;;;;;;8.15;6.97;;;13.80;57.20;;;;;;5052463;28;20045;-66
2023/04/18 08:08:06;;;;;;;8.93;6.53;;;13.70;57.90;;;;;;5045559;28;20037;-65
2023/04/18 08:10:32;;;;;;;8.00;6.43;;;13.30;59.00;;;;;;5028187;28;20499;-67
2023/04/18 08:12:58;;;;;;;6.93;5.72;;;12.80;60.00;;;;;;5047957;28;20068;-65
2023/04/18 08:15:23;;;;;;;8.32;6.30;;;12.80;60.70;;;;;;5051949;28;20061;-65
2023/04/18 08:17:50;;;;;;;8.18;6.93;;;14.00;59.70;;;;;;5048578;28;20025;-66
2023/04/18 08:20:15;;;;;;;7.68;6.38;;;15.10;57.20;;;;;;5046402;28;20029;-67
2023/04/18 08:22:41;;;;;;;8.23;6.60;;;16.20;54.80;;;;;;5046115;28;20033;-66
2023/04/18 08:25:07;;;;;;;6.80;5.65;;;16.20;53.70;;;;;;5046751;28;20033;-66
2023/04/18 08:27:33;;;;;;;7.20;5.47;;;15.50;54.40;;;;;;5047695;28;20032;-66
2023/04/18 08:29:59;;;;;;;8.35;6.47;;;14.50;56.50;;;;;;5043544;28;20530;-65
2023/04/18 08:32:25;;;;;;;5.80;5.10;;;14.10;57.60;;;;;;5045252;28;20052;-67
2023/04/18 08:34:50;;;;;;;8.27;6.13;;;13.70;58.70;;;;;;5031832;28;20480;-66
2023/04/18 08:37:16;;;;;;;7.60;6.50;;;13.50;59.40;;;;;;5045751;28;20029;-65
2023/04/18 08:39:41;;;;;;;8.98;6.10;;;13.00;60.50;;;;;;5046264;28;20090;-68
2023/04/18 08:42:09;;;;;;;6.80;5.63;;;12.60;61.40;;;;;;5039627;28;20036;-66
2023/04/18 08:44:36;;;;;;;8.60;6.28;;;12.20;62.40;;;;;;5046001;28;20025;-66
2023/04/18 08:47:02;;;;;;;7.80;6.00;;;12.00;63.50;;;;;;5026241;28;20032;-65
2023/04/18 08:49:27;;;;;;;9.07;6.68;;;11.80;64.20;;;;;;5048875;28;20380;-66
2023/04/18 08:51:53;;;;;;;7.30;6.03;;;11.50;64.90;;;;;;5050521;28;20032;-64
2023/04/18 08:54:21;;;;;;;7.05;5.65;;;11.50;65.50;;;;;;5044222;28;20151;-64
2023/04/18 08:57:02;;;;;;;8.13;6.25;;;11.50;65.80;;;;;;5049401;28;20035;-65
2023/04/18 08:59:29;;;;;;;6.93;5.28;;;11.50;66.00;;;;;;5029962;28;20032;-65
2023/04/18 09:01:56;;;;;;;8.05;6.40;;;11.50;66.30;;;;;;5047272;28;20115;-64
2023/04/18 09:04:43;;;;;;;8.27;6.68;;;11.60;66.20;;;;;;5043882;28;20025;-65
2023/04/18 09:07:15;;;;;;;8.57;6.05;;;11.50;66.40;;;;;;5043768;28;20459;-66
2023/04/18 09:09:48;;;;;;;7.00;5.90;;;11.30;67.20;;;;;;5050761;28;20061;-65
2023/04/18 09:12:18;;;;;;;8.27;6.47;;;11.30;67.40;;;;;;5048707;28;20538;-66
2023/04/18 09:14:45;;;;;;;7.88;6.20;;;11.20;67.60;;;;;;5048473;28;20026;-66
2023/04/18 09:17:13;;;;;;;6.97;5.82;;;11.20;68.00;;;;;;5047690;28;20017;-66
2023/04/18 09:19:47;;;;;;;7.22;5.82;;;11.30;67.70;;;;;;5042046;28;20116;-65
2023/04/18 09:22:13;;;;;;;6.72;5.40;;;11.30;67.60;;;;;;5047938;28;20124;-65
2023/04/18 09:24:49;;;;;;;8.15;5.70;;;11.20;67.20;;;;;;5046530;28;20075;-65
2023/04/18 09:27:14;;;;;;;7.57;5.97;;;11.20;67.50;;;;;;5048032;28;20087;-65
2023/04/18 09:29:45;;;;;;;7.07;5.93;;;11.20;67.90;;;;;;5042401;28;20042;-68
2023/04/18 09:32:18;;;;;;;8.35;5.80;;;11.20;68.20;;;;;;5046120;28;20032;-64
2023/04/18 09:34:43;;;;;;;8.65;6.47;;;11.10;67.90;;;;;;5047085;28;20025;-66
2023/04/18 09:37:13;;;;;;;7.85;6.03;;;11.10;68.30;;;;;;5047483;28;20075;-66
2023/04/18 09:39:43;;;;;;;8.32;6.18;;;11.10;68.80;;;;;;5027181;28;20554;-65
2023/04/18 09:42:09;;;;;;;7.50;6.05;;;11.10;68.50;;;;;;5046070;28;20032;-66
2023/04/18 09:44:36;;;;;;;6.20;5.30;;;11.10;68.60;;;;;;5047038;28;20032;-66
2023/04/18 09:47:01;;;;;;;9.60;6.05;;;11.40;68.70;;;;;;5049701;28;20501;-64
2023/04/18 09:49:27;;;;;;;7.97;5.97;;;11.70;68.10;;;;;;5043972;28;20026;-67
2023/04/18 09:51:54;;;;;;;8.05;5.40;;;11.80;67.60;;;;;;5049698;28;20423;-65
2023/04/18 09:54:23;;;;;;;6.88;5.55;;;11.90;67.50;;;;;;5044870;28;20746;-66
2023/04/18 09:56:52;;;;;;;9.13;6.25;;;11.90;67.30;;;;;;5044308;28;20392;-65
2023/04/18 09:59:31;;;;;;;7.97;6.20;;;11.80;66.80;;;;;;5047779;28;20100;-66
2023/04/18 10:01:58;;;;;;;6.85;5.75;;;11.80;66.80;;;;;;5044423;28;20021;-65
2023/04/18 10:04:25;;;;;;;8.95;5.78;;;11.80;66.40;;;;;;5048754;28;20036;-65
2023/04/18 10:06:53;;;;;;;7.93;5.57;;;11.90;66.10;;;;;;5045054;28;20033;-66
2023/04/18 10:09:19;;;;;;;5.68;4.78;;;11.90;65.90;;;;;;5045471;28;20025;-65
2023/04/18 10:11:45;;;;;;;7.25;5.50;;;11.90;65.70;;;;;;5046510;28;20040;-66
2023/04/18 10:14:14;;;;;;;6.68;5.55;;;12.10;65.20;;;;;;5049188;28;20029;-64
2023/04/18 10:16:44;;;;;;;6.07;5.18;;;12.20;65.30;;;;;;5032219;28;20036;-65
2023/04/18 10:19:43;;;;;;;6.72;5.30;;;12.50;65.40;;;;;;5046561;28;20020;-65
2023/04/18 10:22:10;;;;;;;6.57;5.63;;;12.70;64.60;;;;;;5036773;28;20045;-65
2023/04/18 10:24:53;;;;;;;6.30;4.68;;;12.70;63.40;;;;;;5047913;28;20027;-66
2023/04/18 10:27:47;;;;;;;7.18;5.38;;;12.70;63.80;;;;;;5050527;28;20032;-65
2023/04/18 10:30:13;;;;;;;6.22;5.38;;;12.80;63.50;;;;;;5047876;28;20043;-66
2023/04/18 10:32:39;;;;;;;7.00;5.40;;;12.90;63.30;;;;;;5049841;28;20051;-66
2023/04/18 10:35:06;;;;;;;6.75;5.60;;;12.90;63.10;;;;;;5046602;28;20029;-66
2023/04/18 10:37:32;;;;;;;9.27;6.63;;;12.80;63.30;;;;;;5048736;28;20025;-66
2023/04/18 10:40:05;;;;;;;9.50;6.78;;;12.60;63.10;;;;;;5044237;28;20387;-66
2023/04/18 10:42:46;;;;;;;7.43;6.38;;;12.30;63.90;;;;;;5049548;28;20075;-66
2023/04/18 10:45:18;;;;;;;7.40;5.93;;;12.20;64.60;;;;;;5046445;28;20117;-66
2023/04/18 10:47:44;;;;;;;8.10;6.57;;;12.10;65.40;;;;;;5049090;28;20072;-65
2023/04/18 10:50:10;;;;;;;8.30;6.18;;;12.10;65.70;;;;;;5048502;28;20122;-65
2023/04/18 10:52:36;;;;;;;8.32;6.93;;;12.20;65.80;;;;;;5030091;28;20033;-65
2023/04/18 10:55:15;;;;;;;8.15;6.45;;;12.10;65.70;;;;;;5043065;28;20048;-66
2023/04/18 10:57:46;;;;;;;8.10;7.10;;;12.10;65.90;;;;;;5047235;28;20025;-65
2023/04/18 11:00:15;;;;;;;8.55;7.15;;;12.30;65.60;;;;;;5033808;28;20044;-68
2023/04/18 11:02:52;;;;;;;7.13;6.28;;;12.30;65.40;;;;;;5046460;28;20047;-64
2023/04/18 11:05:20;;;;;;;7.63;6.03;;;12.40;65.40;;;;;;5047246;28;20169;-65
2023/04/18 11:07:47;;;;;;;9.57;7.30;;;12.60;65.30;;;;;;5047059;28;20112;-66
2023/04/18 11:10:19;;;;;;;7.78;6.72;;;12.70;64.40;;;;;;5047196;28;20025;-64
2023/04/18 11:12:46;;;;;;;8.98;7.10;;;13.00;64.40;;;;;;5045794;28;20487;-67
2023/04/18 11:15:16;;;;;;;10.07;7.70;;;13.30;63.70;;;;;;5040367;28;20018;-65
2023/04/18 11:17:42;;;;;;;9.10;7.30;;;13.20;63.50;;;;;;5041663;28;20025;-66
2023/04/18 11:20:13;;;;;;;7.80;6.10;;;13.20;63.50;;;;;;5041982;28;20108;-68
2023/04/18 11:22:59;;;;;;;9.45;7.60;;;13.30;63.60;;;;;;5042272;28;20033;-64
2023/04/18 11:25:29;;;;;;;8.88;7.50;;;13.20;62.70;;;;;;5046964;28;20043;-67
2023/04/18 11:27:59;;;;;;;7.40;5.90;;;13.00;63.40;;;;;;5044457;28;20036;-65
2023/04/18 11:30:24;;;;;;;8.57;6.63;;;13.10;64.00;;;;;;5047296;28;20435;-67
2023/04/18 11:32:50;;;;;;;8.80;7.05;;;13.30;63.80;;;;;;5043717;28;20078;-65
2023/04/18 11:35:17;;;;;;;8.70;7.53;;;13.50;63.60;;;;;;5046943;28;20021;-65
2023/04/18 11:37:48;;;;;;;9.43;8.02;;;13.60;62.90;;;;;;5044059;28;20081;-66
2023/04/18 11:40:15;;;;;;;9.47;7.53;;;13.70;62.80;;;;;;5047245;28;20021;-65
2023/04/18 11:42:41;;;;;;;9.07;7.10;;;13.90;62.80;;;;;;5047667;28;20575;-66
2023/04/18 11:45:11;;;;;;;10.43;8.50;;;14.20;62.80;;;;;;5046022;28;20033;-64
2023/04/18 11:47:37;;;;;;;9.85;8.27;;;14.40;61.50;;;;;;5047739;28;20060;-67
2023/04/18 11:50:07;;;;;;;10.13;8.18;;;14.20;60.90;;;;;;5039493;28;21525;-64
2023/04/18 11:52:33;;;;;;;10.02;7.93;;;13.90;61.60;;;;;;5039595;28;20034;-66
2023/04/18 11:55:17;;;;;;;8.65;7.43;;;13.70;62.30;;;;;;5046690;28;20799;-66
2023/04/18 11:57:52;;;;;;;8.95;7.45;;;13.70;63.10;;;;;;5043978;28;20029;-65
2023/04/18 12:00:33;;;;;;;9.88;8.52;;;13.70;63.20;;;;;;5042533;28;20094;-64
2023/04/18 12:03:00;;;;;;;10.52;8.73;;;13.80;62.80;;;;;;5044512;28;20379;-66
2023/04/18 12:05:30;;;;;;;9.77;8.73;;;13.70;62.80;;;;;;5042366;28;20063;-66
2023/04/18 12:08:03;;;;;;;11.70;10.10;;;13.70;63.00;;;;;;5044989;28;20027;-66
2023/04/18 12:10:29;;;;;;;12.05;10.13;;;13.60;62.50;;;;;;5047662;28;20064;-66
2023/04/18 12:12:59;;;;;;;10.65;9.30;;;13.30;63.30;;;;;;5047166;28;20045;-66
2023/04/18 12:15:27;;;;;;;13.73;10.20;;;13.30;64.10;;;;;;5047217;28;20672;-66
2023/04/18 12:17:58;;;;;;;11.40;9.68;;;13.20;64.20;;;;;;5044625;28;21117;-66
2023/04/18 12:20:24;;;;;;;10.55;9.15;;;13.20;64.60;;;;;;5044798;28;20107;-65
2023/04/18 12:22:50;;;;;;;11.93;9.98;;;13.20;64.80;;;;;;5038054;28;20533;-65
2023/04/18 12:25:23;;;;;;;14.65;11.38;;;13.30;64.70;;;;;;5046768;28;20056;-66
2023/04/18 12:27:54;;;;;;;11.18;9.55;;;13.40;64.60;;;;;;5029103;28;20090;-69
2023/04/18 12:30:28;;;;;;;12.90;11.05;;;13.50;64.70;;;;;;5041937;28;20052;-66
2023/04/18 12:32:56;;;;;;;13.27;9.80;;;13.50;64.60;;;;;;5055330;28;20037;-65
2023/04/18 12:35:22;;;;;;;11.95;10.38;;;13.60;64.40;;;;;;5041332;28;20021;-65
2023/04/18 12:37:49;;;;;;;12.95;11.32;;;13.70;64.20;;;;;;5030772;28;20834;-65
2023/04/18 12:40:17;;;;;;;12.25;9.85;;;13.70;63.90;;;;;;5048059;28;20372;-66
2023/04/18 12:42:44;;;;;;;11.65;9.95;;;13.60;64.10;;;;;;5048954;28;20033;-65
2023/04/18 12:45:10;;;;;;;13.05;10.95;;;13.80;64.40;;;;;;5048189;28;20033;-65